sensor_id;sensor_type;location;lat;lon;timestamp;pressure;altitude;pressure_sealevel;temperature;humidity
53689;BME280;39583;54.682;30.662;2022-11-15T06:52:14;99682.69;;;1.13;97.69
53689;BME280;39583;54.682;30.662;2022-11-15T06:54:58;99675.25;;;1.34;96.58
53689;BME280;39583;54.682;30.662;2022-11-15T06:57:50;99675.19;;;1.52;95.75
53689;BME280;39583;54.682;30.662;2022-11-15T07:00:35;99657.00;;;1.57;95.00
53689;BME280;39583;54.682;30.662;2022-11-15T07:03:20;99665.81;;;1.66;94.64
53689;BME280;39583;54.682;30.662;2022-11-15T07:06:05;99660.00;;;1.62;94.00
53689;BME280;39583;54.682;30.662;2022-11-15T07:08:50;99639.75;;;1.61;94.06
53689;BME280;39583;54.682;30.662;2022-11-15T09:15:12;99502.81;;;2.01;97.32
53689;BME280;39583;54.682;30.662;2022-11-15T09:18:00;99487.56;;;2.19;96.39
53689;BME280;39583;54.682;30.662;2022-11-15T09:20:45;99477.94;;;2.34;95.29
53689;BME280;39583;54.682;30.662;2022-11-15T09:23:29;99468.94;;;2.44;94.60
53689;BME280;39583;54.682;30.662;2022-11-15T09:26:14;99463.16;;;2.48;94.26
53689;BME280;39583;54.682;30.662;2022-11-15T09:28:58;99460.63;;;2.55;93.39
53689;BME280;39583;54.682;30.662;2022-11-15T09:31:43;99452.97;;;2.60;93.24
53689;BME280;39583;54.682;30.662;2022-11-15T09:34:28;99450.84;;;2.63;92.73
53689;BME280;39583;54.682;30.662;2022-11-15T09:37:13;99437.84;;;2.69;93.01
53689;BME280;39583;54.682;30.662;2022-11-15T09:39:57;99447.66;;;2.68;92.37
53689;BME280;39583;54.682;30.662;2022-11-15T13:07:05;99158.50;;;2.24;95.30
53689;BME280;39583;54.682;30.662;2022-11-15T13:17:49;99143.47;;;2.40;93.85
53689;BME280;39583;54.682;30.662;2022-11-15T13:34:03;99138.81;;;2.42;93.40
53689;BME280;39583;54.682;30.662;2022-11-15T13:36:40;99134.59;;;2.47;93.61
53689;BME280;39583;54.682;30.662;2022-11-15T13:39:25;99135.56;;;2.54;93.90
53689;BME280;39583;54.682;30.662;2022-11-15T13:41:52;99127.88;;;2.59;93.73
53689;BME280;39583;54.682;30.662;2022-11-15T13:44:27;99125.41;;;2.58;93.49
53689;BME280;39583;54.682;30.662;2022-11-15T13:47:12;99125.22;;;2.59;93.30
53689;BME280;39583;54.682;30.662;2022-11-15T13:49:39;99127.88;;;2.59;93.31
53689;BME280;39583;54.682;30.662;2022-11-15T13:52:08;99123.38;;;2.60;93.52
53689;BME280;39583;54.682;30.662;2022-11-15T13:54:56;99123.06;;;2.63;93.50
53689;BME280;39583;54.682;30.662;2022-11-15T13:57:27;99117.75;;;2.63;93.34
53689;BME280;39583;54.682;30.662;2022-11-15T14:00:05;99123.69;;;2.65;93.61
53689;BME280;39583;54.682;30.662;2022-11-15T14:02:38;99121.50;;;2.69;93.59
53689;BME280;39583;54.682;30.662;2022-11-15T14:05:17;99129.94;;;2.72;93.52
53689;BME280;39583;54.682;30.662;2022-11-15T14:10:42;99119.06;;;2.82;94.11
53689;BME280;39583;54.682;30.662;2022-11-15T14:13:29;99084.88;;;2.56;93.00
53689;BME280;39583;54.682;30.662;2022-11-15T14:16:19;99103.53;;;2.71;93.28
53689;BME280;39583;54.682;30.662;2022-11-15T14:18:48;99113.56;;;2.83;93.51
53689;BME280;39583;54.682;30.662;2022-11-15T14:21:15;99114.41;;;2.84;93.05
53689;BME280;39583;54.682;30.662;2022-11-15T14:23:42;99095.75;;;2.69;93.10
53689;BME280;39583;54.682;30.662;2022-11-15T14:26:29;99107.25;;;2.84;92.92
53689;BME280;39583;54.682;30.662;2022-11-15T14:28:56;99111.88;;;2.90;92.95
53689;BME280;39583;54.682;30.662;2022-11-15T14:31:22;99103.88;;;2.90;92.67
53689;BME280;39583;54.682;30.662;2022-11-15T14:33:49;99105.00;;;2.96;93.07
53689;BME280;39583;54.682;30.662;2022-11-15T14:36:19;99099.84;;;2.94;92.92
53689;BME280;39583;54.682;30.662;2022-11-15T14:38:47;99096.19;;;2.95;92.66
53689;BME280;39583;54.682;30.662;2022-11-15T14:41:24;99093.63;;;2.87;92.32
53689;BME280;39583;54.682;30.662;2022-11-15T14:43:51;99089.78;;;2.90;92.58
53689;BME280;39583;54.682;30.662;2022-11-15T14:46:18;99094.53;;;2.94;92.74
53689;BME280;39583;54.682;30.662;2022-11-15T14:48:44;99077.94;;;2.92;92.29
53689;BME280;39583;54.682;30.662;2022-11-15T14:51:16;99077.38;;;2.97;92.37
53689;BME280;39583;54.682;30.662;2022-11-15T14:53:43;99022.97;;;2.70;92.62
53689;BME280;39583;54.682;30.662;2022-11-15T14:56:10;99076.88;;;3.02;92.52
53689;BME280;39583;54.682;30.662;2022-11-15T14:58:36;99078.34;;;3.04;92.69
53689;BME280;39583;54.682;30.662;2022-11-15T15:01:13;99071.72;;;3.00;92.42
53689;BME280;39583;54.682;30.662;2022-11-15T15:03:42;99075.94;;;2.94;91.83
53689;BME280;39583;54.682;30.662;2022-11-15T15:06:10;99068.78;;;2.95;92.09
53689;BME280;39583;54.682;30.662;2022-11-15T15:08:39;99035.56;;;2.76;91.87
53689;BME280;39583;54.682;30.662;2022-11-15T15:11:20;99021.50;;;2.67;91.73
53689;BME280;39583;54.682;30.662;2022-11-15T15:13:47;99061.09;;;3.00;91.87
53689;BME280;39583;54.682;30.662;2022-11-15T15:16:13;99060.72;;;3.03;92.21
53689;BME280;39583;54.682;30.662;2022-11-15T15:18:39;99050.16;;;2.95;91.71
53689;BME280;39583;54.682;30.662;2022-11-15T15:23:42;99054.28;;;2.97;91.76
53689;BME280;39583;54.682;30.662;2022-11-15T15:26:09;99059.16;;;2.94;91.79
53689;BME280;39583;54.682;30.662;2022-11-15T15:28:35;99056.03;;;2.90;91.55
53689;BME280;39583;54.682;30.662;2022-11-15T15:31:01;99049.50;;;2.93;91.75
53689;BME280;39583;54.682;30.662;2022-11-15T15:33:28;99050.16;;;2.95;91.90
53689;BME280;39583;54.682;30.662;2022-11-15T15:35:53;99043.00;;;2.95;91.91
53689;BME280;39583;54.682;30.662;2022-11-15T15:38:20;98952.09;;;2.48;91.89
53689;BME280;39583;54.682;30.662;2022-11-15T15:40:47;99035.97;;;3.03;92.21
53689;BME280;39583;54.682;30.662;2022-11-15T15:43:13;99041.34;;;2.94;91.59
53689;BME280;39583;54.682;30.662;2022-11-15T15:45:41;99030.63;;;2.88;91.48
53689;BME280;39583;54.682;30.662;2022-11-15T15:48:12;99035.94;;;2.88;91.49
53689;BME280;39583;54.682;30.662;2022-11-15T15:50:39;99012.91;;;2.80;92.20
53689;BME280;39583;54.682;30.662;2022-11-15T15:53:05;98953.75;;;2.49;91.98
53689;BME280;39583;54.682;30.662;2022-11-15T15:55:33;99032.00;;;2.99;92.00
53689;BME280;39583;54.682;30.662;2022-11-15T15:58:00;99039.16;;;2.98;91.47
53689;BME280;39583;54.682;30.662;2022-11-15T16:00:28;99036.97;;;3.02;91.67
53689;BME280;39583;54.682;30.662;2022-11-15T16:02:54;99024.75;;;3.07;92.07
53689;BME280;39583;54.682;30.662;2022-11-15T16:05:21;99024.88;;;3.14;92.04
53689;BME280;39583;54.682;30.662;2022-11-15T16:07:48;99018.72;;;3.13;91.85
53689;BME280;39583;54.682;30.662;2022-11-15T16:10:25;99015.97;;;3.21;91.62
53689;BME280;39583;54.682;30.662;2022-11-15T16:12:53;99001.94;;;3.13;91.64
53689;BME280;39583;54.682;30.662;2022-11-15T16:15:20;99016.59;;;3.23;91.71
53689;BME280;39583;54.682;30.662;2022-11-15T16:17:50;99021.72;;;3.25;91.24
53689;BME280;39583;54.682;30.662;2022-11-15T16:20:40;99018.44;;;3.23;91.11
53689;BME280;39583;54.682;30.662;2022-11-15T16:23:13;98993.69;;;3.08;90.96
53689;BME280;39583;54.682;30.662;2022-11-15T16:25:46;99016.41;;;3.25;91.14
53689;BME280;39583;54.682;30.662;2022-11-15T16:30:44;99013.41;;;3.28;90.99
53689;BME280;39583;54.682;30.662;2022-11-15T16:33:10;99014.63;;;3.25;91.15
53689;BME280;39583;54.682;30.662;2022-11-15T16:35:37;99020.38;;;3.29;90.89
53689;BME280;39583;54.682;30.662;2022-11-15T16:38:03;99012.41;;;3.29;90.97
53689;BME280;39583;54.682;30.662;2022-11-15T16:40:32;98959.84;;;3.02;90.92
53689;BME280;39583;54.682;30.662;2022-11-15T16:42:59;99009.63;;;3.37;90.89
53689;BME280;39583;54.682;30.662;2022-11-15T16:45:28;99008.59;;;3.38;90.54
53689;BME280;39583;54.682;30.662;2022-11-15T16:47:55;99006.63;;;3.40;90.92
53689;BME280;39583;54.682;30.662;2022-11-15T16:50:24;99008.25;;;3.41;90.61
53689;BME280;39583;54.682;30.662;2022-11-15T16:52:58;99003.28;;;3.38;90.29
53689;BME280;39583;54.682;30.662;2022-11-15T16:55:27;99006.50;;;3.34;90.04
53689;BME280;39583;54.682;30.662;2022-11-15T16:57:56;98984.22;;;3.20;90.53
53689;BME280;39583;54.682;30.662;2022-11-15T17:00:28;98990.66;;;3.25;90.40
53689;BME280;39583;54.682;30.662;2022-11-15T17:02:54;98982.66;;;3.11;90.43
53689;BME280;39583;54.682;30.662;2022-11-15T17:05:24;98977.72;;;3.08;90.61
53689;BME280;39583;54.682;30.662;2022-11-15T17:07:52;99002.66;;;3.21;90.40
53689;BME280;39583;54.682;30.662;2022-11-15T17:10:23;98999.19;;;3.21;90.46
53689;BME280;39583;54.682;30.662;2022-11-15T17:12:51;98993.66;;;3.22;90.91
53689;BME280;39583;54.682;30.662;2022-11-15T17:15:17;98985.06;;;3.20;90.70
53689;BME280;39583;54.682;30.662;2022-11-15T17:17:44;98987.06;;;3.18;90.63
53689;BME280;39583;54.682;30.662;2022-11-15T17:20:20;98977.81;;;3.14;90.21
53689;BME280;39583;54.682;30.662;2022-11-15T17:22:56;98978.00;;;3.13;90.45
53689;BME280;39583;54.682;30.662;2022-11-15T17:25:24;98981.50;;;3.13;90.66
53689;BME280;39583;54.682;30.662;2022-11-15T17:27:51;98964.78;;;3.05;90.49
53689;BME280;39583;54.682;30.662;2022-11-15T17:30:18;98969.16;;;3.12;91.10
53689;BME280;39583;54.682;30.662;2022-11-15T17:32:46;98965.69;;;3.12;90.90
53689;BME280;39583;54.682;30.662;2022-11-15T17:35:14;98971.13;;;3.18;90.74
53689;BME280;39583;54.682;30.662;2022-11-15T17:37:43;98971.94;;;3.19;90.83
53689;BME280;39583;54.682;30.662;2022-11-15T17:40:13;98971.31;;;3.17;90.49
53689;BME280;39583;54.682;30.662;2022-11-15T17:42:40;98967.38;;;3.13;90.67
53689;BME280;39583;54.682;30.662;2022-11-15T17:45:08;98970.56;;;3.08;90.38
53689;BME280;39583;54.682;30.662;2022-11-15T17:47:36;98971.13;;;3.04;90.22
53689;BME280;39583;54.682;30.662;2022-11-15T17:50:03;98957.00;;;3.03;90.49
53689;BME280;39583;54.682;30.662;2022-11-15T17:52:30;98956.16;;;3.03;90.39
53689;BME280;39583;54.682;30.662;2022-11-15T17:54:57;98959.84;;;3.02;90.21
53689;BME280;39583;54.682;30.662;2022-11-15T17:57:24;98960.56;;;2.95;90.35
53689;BME280;39583;54.682;30.662;2022-11-15T17:59:51;98957.25;;;2.93;90.32
53689;BME280;39583;54.682;30.662;2022-11-15T18:02:19;98953.16;;;2.91;90.57
53689;BME280;39583;54.682;30.662;2022-11-15T18:04:46;98954.59;;;2.93;90.53
53689;BME280;39583;54.682;30.662;2022-11-15T18:07:12;98951.50;;;2.90;90.28
53689;BME280;39583;54.682;30.662;2022-11-15T18:09:39;98956.63;;;2.91;90.51
53689;BME280;39583;54.682;30.662;2022-11-15T18:12:11;98956.44;;;2.93;90.59
53689;BME280;39583;54.682;30.662;2022-11-15T18:14:38;98958.09;;;2.94;90.32
53689;BME280;39583;54.682;30.662;2022-11-15T18:17:06;98953.22;;;2.97;90.50
53689;BME280;39583;54.682;30.662;2022-11-15T18:19:35;98956.16;;;3.03;90.62
53689;BME280;39583;54.682;30.662;2022-11-15T18:22:05;98958.66;;;3.04;90.36
53689;BME280;39583;54.682;30.662;2022-11-15T18:24:35;98957.19;;;3.02;90.12
53689;BME280;39583;54.682;30.662;2022-11-15T18:27:06;98955.53;;;3.01;90.60
53689;BME280;39583;54.682;30.662;2022-11-15T18:29:33;98958.34;;;2.99;90.37
53689;BME280;39583;54.682;30.662;2022-11-15T18:32:05;98944.78;;;2.94;90.15
53689;BME280;39583;54.682;30.662;2022-11-15T18:34:36;98953.78;;;2.93;90.26
53689;BME280;39583;54.682;30.662;2022-11-15T18:37:04;98957.44;;;2.92;90.31
53689;BME280;39583;54.682;30.662;2022-11-15T18:39:32;98960.13;;;2.92;90.21
53689;BME280;39583;54.682;30.662;2022-11-15T18:42:01;98961.94;;;2.91;90.39
53689;BME280;39583;54.682;30.662;2022-11-15T18:44:28;98959.66;;;2.88;90.04
53689;BME280;39583;54.682;30.662;2022-11-15T18:46:56;98966.63;;;2.89;90.23
53689;BME280;39583;54.682;30.662;2022-11-15T18:49:22;98950.56;;;2.83;90.33
53689;BME280;39583;54.682;30.662;2022-11-15T18:51:49;98958.09;;;2.94;90.58
53689;BME280;39583;54.682;30.662;2022-11-15T18:54:16;98955.53;;;3.01;90.56
